Whangarei (NZWR)

Aerodrome — Elev 133
New Zealand
S035.46.05.999 E174.21.54.000
Loading chart...

Current Weather

NZWR 260200Z 20011KT 25KM BKN030 14/09 Q1015 RMK ALT NZAA VATSIM USE ONLY

Published 1 hours 28 minutes ago

Airport Activity

Loading chart...
Loading chart...

Positions

CallsignRadio Name / Freq / Voice Room / TypeFrequencyVoice RoomType
NZAA_CTR Auckland Control
123.900
nzaa_ctr
123.900nzaa_ctr
NZCH-R_CTR Auckland Control
126.000
nzch-r_ctr
126.000nzch-r_ctr
UNICOM NZZC UNICOM
122.800
unicom_nzzc
122.800unicom_nzzc

Charts

Ground Charts

Aerodrome (1) & (2)

Departure Charts

SID RWY 06 & 24